Time;durP1;ratioP1;P1;durP2;ratioP2;P2;SDS_P1;SDS_P2;PMS_P1;PMS_P2;Temp;Humidity;BMP_temperature;BMP_pressure;BME280_temperature;BME280_humidity;BME280_pressure;Samples;Min_cycle;Max_cycle;Signal;HPM_P1;HPM_P2
2021/10/03 00:00:16;;;;;;;2.25;1.83;;;;;;;;;;5032345;28;20021;-61
2021/10/03 00:02:43;;;;;;;2.22;1.92;;;;;;;;;;5030820;28;20112;-60
2021/10/03 00:05:12;;;;;;;5.47;1.70;;;;;;;;;;5030895;28;20033;-61
2021/10/03 00:07:59;;;;;;;4.57;1.80;;;;;;;;;;5030800;28;20033;-61
2021/10/03 00:10:26;;;;;;;2.25;1.80;;;;;;;;;;5031762;28;20386;-61
2021/10/03 00:12:51;;;;;;;2.88;1.98;;;;;;;;;;5031866;28;20024;-61
2021/10/03 00:15:20;;;;;;;2.83;1.92;;;;;;;;;;5031932;28;20018;-61
2021/10/03 00:17:48;;;;;;;3.08;1.98;;;;;;;;;;5031966;28;20353;-61
2021/10/03 00:20:13;;;;;;;3.50;1.70;;;;;;;;;;5031995;28;20381;-61
2021/10/03 00:22:39;;;;;;;2.42;2.08;;;;;;;;;;5031555;28;20018;-61
2021/10/03 00:25:06;;;;;;;2.35;2.05;;;;;;;;;;5031671;28;20029;-61
2021/10/03 00:27:31;;;;;;;2.83;2.08;;;;;;;;;;5032702;28;20028;-61
2021/10/03 00:29:57;;;;;;;2.40;1.77;;;;;;;;;;5035689;28;20388;-61
2021/10/03 00:32:22;;;;;;;7.72;1.98;;;;;;;;;;5034490;28;20033;-61
2021/10/03 00:34:50;;;;;;;2.72;2.15;;;;;;;;;;5034188;28;20427;-61
2021/10/03 00:37:16;;;;;;;3.42;1.80;;;;;;;;;;5042864;28;20068;-61
2021/10/03 00:39:41;;;;;;;2.97;2.08;;;;;;;;;;5055162;28;20559;-61
2021/10/03 00:42:12;;;;;;;3.72;1.90;;;;;;;;;;5055532;28;20017;-61
2021/10/03 00:44:38;;;;;;;4.45;2.08;;;;;;;;;;5039173;28;20025;-61
2021/10/03 00:47:03;;;;;;;3.20;2.07;;;;;;;;;;5034214;28;20071;-61
2021/10/03 00:49:34;;;;;;;3.38;1.80;;;;;;;;;;5035308;28;20264;-61
2021/10/03 00:52:04;;;;;;;3.00;2.45;;;;;;;;;;5034994;28;20020;-61
2021/10/03 00:54:29;;;;;;;3.10;2.17;;;;;;;;;;5034502;28;20106;-61
2021/10/03 00:56:54;;;;;;;3.35;2.58;;;;;;;;;;5035331;28;20465;-61
2021/10/03 00:59:35;;;;;;;2.40;2.15;;;;;;;;;;5035192;28;20475;-61
2021/10/03 01:02:01;;;;;;;4.22;2.35;;;;;;;;;;5034024;28;20112;-61
2021/10/03 01:04:27;;;;;;;2.83;2.10;;;;;;;;;;5034930;28;20040;-60
2021/10/03 01:06:52;;;;;;;3.78;2.50;;;;;;;;;;5035015;28;20014;-61
2021/10/03 01:09:19;;;;;;;3.30;2.50;;;;;;;;;;5035053;28;20028;-61
2021/10/03 01:11:50;;;;;;;3.40;2.38;;;;;;;;;;5034948;28;20094;-61
2021/10/03 01:14:19;;;;;;;2.92;2.33;;;;;;;;;;5034683;28;20029;-61
2021/10/03 01:16:45;;;;;;;4.35;2.47;;;;;;;;;;5033708;28;20060;-61
2021/10/03 01:19:10;;;;;;;3.00;2.40;;;;;;;;;;5033362;28;20115;-59
2021/10/03 01:21:35;;;;;;;5.05;3.40;;;;;;;;;;5034092;28;20044;-61
2021/10/03 01:24:01;;;;;;;4.93;2.53;;;;;;;;;;5053870;22;20058;-60
2021/10/03 01:26:32;;;;;;;3.83;2.20;;;;;;;;;;5033874;28;20472;-60
2021/10/03 01:29:07;;;;;;;4.10;2.70;;;;;;;;;;5034776;28;20021;-59
2021/10/03 01:31:32;;;;;;;5.93;2.78;;;;;;;;;;5034489;28;20026;-60
2021/10/03 01:33:58;;;;;;;3.22;2.55;;;;;;;;;;5046194;28;20036;-58
2021/10/03 01:36:26;;;;;;;3.58;2.28;;;;;;;;;;5053058;28;20095;-58
2021/10/03 01:38:54;;;;;;;3.40;2.58;;;;;;;;;;5033871;28;20017;-56
2021/10/03 01:41:19;;;;;;;3.60;2.55;;;;;;;;;;5034440;28;20030;-58
2021/10/03 01:43:54;;;;;;;2.67;2.30;;;;;;;;;;5033209;28;20033;-59
2021/10/03 01:46:19;;;;;;;4.55;2.65;;;;;;;;;;5040110;28;20336;-61
2021/10/03 01:48:47;;;;;;;4.70;2.67;;;;;;;;;;5037918;28;20021;-58
2021/10/03 01:51:14;;;;;;;4.15;2.88;;;;;;;;;;5033156;28;20283;-61
2021/10/03 01:53:44;;;;;;;3.97;2.55;;;;;;;;;;5031403;28;20033;-58
2021/10/03 01:56:15;;;;;;;5.45;2.65;;;;;;;;;;5032655;28;20030;-59
2021/10/03 01:58:43;;;;;;;3.42;2.60;;;;;;;;;;5031870;28;20484;-59
2021/10/03 02:01:19;;;;;;;4.03;2.53;;;;;;;;;;5033357;28;20025;-57
2021/10/03 02:03:45;;;;;;;5.03;3.20;;;;;;;;;;5033067;28;20022;-57
2021/10/03 02:06:10;;;;;;;3.70;3.00;;;;;;;;;;5032723;28;20040;-58
2021/10/03 02:08:41;;;;;;;3.30;2.83;;;;;;;;;;5031870;28;20112;-59
2021/10/03 02:11:06;;;;;;;4.45;2.92;;;;;;;;;;5032939;28;20106;-61
2021/10/03 02:13:35;;;;;;;4.28;2.90;;;;;;;;;;5031652;28;20060;-58
2021/10/03 02:16:03;;;;;;;4.53;3.10;;;;;;;;;;5032609;28;20024;-60
2021/10/03 02:18:35;;;;;;;5.72;3.00;;;;;;;;;;5033004;28;20022;-59
2021/10/03 02:21:01;;;;;;;8.85;2.90;;;;;;;;;;5031640;28;20017;-59
2021/10/03 02:23:26;;;;;;;5.07;3.58;;;;;;;;;;5032603;28;20412;-59
2021/10/03 02:25:51;;;;;;;4.35;3.15;;;;;;;;;;5032066;28;20472;-58
2021/10/03 02:28:17;;;;;;;5.93;3.90;;;;;;;;;;5031692;28;20109;-59
2021/10/03 02:30:44;;;;;;;5.60;3.47;;;;;;;;;;5032728;28;20084;-59
2021/10/03 02:33:12;;;;;;;4.88;3.38;;;;;;;;;;5032397;28;20099;-58
2021/10/03 02:35:47;;;;;;;5.57;3.97;;;;;;;;;;5032239;28;20024;-59
2021/10/03 02:38:13;;;;;;;5.50;3.78;;;;;;;;;;5032454;28;20021;-60
2021/10/03 02:40:42;;;;;;;4.78;3.65;;;;;;;;;;5032488;28;20030;-59
2021/10/03 02:43:08;;;;;;;4.55;3.58;;;;;;;;;;5032371;28;20104;-59
2021/10/03 02:45:38;;;;;;;6.25;3.58;;;;;;;;;;5032104;28;20445;-59
2021/10/03 02:48:11;;;;;;;5.85;4.20;;;;;;;;;;5041940;28;20013;-59
2021/10/03 02:50:36;;;;;;;;;;;;;;;;;;5052752;28;20475;-58
2021/10/03 02:53:09;;;;;;;9.90;4.10;;;;;;;;;;5050606;28;20000;-59
2021/10/03 02:55:40;;;;;;;5.90;4.10;;;;;;;;;;5034964;28;20025;-59
2021/10/03 02:58:05;;;;;;;6.82;4.10;;;;;;;;;;5032206;28;20022;-59
2021/10/03 03:00:35;;;;;;;5.75;4.40;;;;;;;;;;5032178;28;20035;-59
2021/10/03 03:03:00;;;;;;;5.78;4.22;;;;;;;;;;5032185;28;20104;-59
2021/10/03 03:05:25;;;;;;;8.33;4.13;;;;;;;;;;5031940;28;20443;-60
2021/10/03 03:07:50;;;;;;;7.17;4.47;;;;;;;;;;5032262;28;20345;-59
2021/10/03 03:10:16;;;;;;;8.95;5.10;;;;;;;;;;5030954;28;20264;-58
2021/10/03 03:12:49;;;;;;;6.73;4.53;;;;;;;;;;5031884;28;20038;-59
2021/10/03 03:15:17;;;;;;;7.32;5.30;;;;;;;;;;5031751;28;20268;-58
2021/10/03 03:17:43;;;;;;;6.35;4.30;;;;;;;;;;5032049;28;20500;-59
2021/10/03 03:20:14;;;;;;;6.70;4.55;;;;;;;;;;5034701;28;20056;-58
2021/10/03 03:22:39;;;;;;;7.50;5.47;;;;;;;;;;5036914;28;20061;-60
2021/10/03 03:25:06;;;;;;;12.18;5.05;;;;;;;;;;5031731;28;20061;-59
2021/10/03 03:27:31;;;;;;;7.63;5.05;;;;;;;;;;5031503;28;20434;-59
2021/10/03 03:29:59;;;;;;;9.73;4.87;;;;;;;;;;5031930;28;20022;-57
2021/10/03 03:32:27;;;;;;;7.45;5.28;;;;;;;;;;5031653;28;20280;-57
2021/10/03 03:34:52;;;;;;;10.65;5.47;;;;;;;;;;5031772;28;20091;-57
2021/10/03 03:37:17;;;;;;;7.33;5.27;;;;;;;;;;5031167;28;20013;-56
2021/10/03 03:39:43;;;;;;;8.57;5.72;;;;;;;;;;5031637;28;20264;-59
2021/10/03 03:42:08;;;;;;;7.77;5.00;;;;;;;;;;5031872;28;20027;-58
2021/10/03 03:44:36;;;;;;;10.27;5.57;;;;;;;;;;5031488;28;20291;-59
2021/10/03 03:47:01;;;;;;;7.63;5.20;;;;;;;;;;5031362;28;20017;-58
2021/10/03 03:49:29;;;;;;;8.07;4.82;;;;;;;;;;5044717;28;20380;-57
2021/10/03 03:51:55;;;;;;;7.30;5.45;;;;;;;;;;5030848;28;20026;-59
2021/10/03 03:54:23;;;;;;;8.57;5.82;;;;;;;;;;5031201;28;20091;-58
2021/10/03 03:56:49;;;;;;;7.53;4.93;;;;;;;;;;5031022;28;20099;-58
2021/10/03 03:59:14;;;;;;;7.25;4.72;;;;;;;;;;5031413;28;20009;-58
2021/10/03 04:01:40;;;;;;;7.55;5.25;;;;;;;;;;5031131;28;20024;-59
2021/10/03 04:04:05;;;;;;;6.40;4.80;;;;;;;;;;5035010;28;20037;-58
2021/10/03 04:06:30;;;;;;;7.15;4.85;;;;;;;;;;5033723;28;20544;-60
2021/10/03 04:08:55;;;;;;;6.13;4.60;;;;;;;;;;5035469;28;20029;-58
2021/10/03 04:11:23;;;;;;;6.55;4.72;;;;;;;;;;5035293;28;20260;-55
2021/10/03 04:13:58;;;;;;;7.90;5.40;;;;;;;;;;5035164;28;20083;-54
2021/10/03 04:16:23;;;;;;;8.30;4.82;;;;;;;;;;5034681;28;20017;-58
2021/10/03 04:19:00;;;;;;;8.20;5.57;;;;;;;;;;5035229;28;20028;-56
2021/10/03 04:21:26;;;;;;;7.05;5.20;;;;;;;;;;5034332;28;20615;-57
2021/10/03 04:23:51;;;;;;;10.18;5.28;;;;;;;;;;5034616;28;20049;-56
2021/10/03 04:26:16;;;;;;;6.97;4.97;;;;;;;;;;5034661;28;20373;-56
2021/10/03 04:28:42;;;;;;;6.40;4.93;;;;;;;;;;5033688;28;20369;-58
2021/10/03 04:31:16;;;;;;;7.78;5.20;;;;;;;;;;5033734;28;20287;-58
2021/10/03 04:33:47;;;;;;;9.20;5.20;;;;;;;;;;5033634;28;20025;-58
2021/10/03 04:36:13;;;;;;;7.10;5.10;;;;;;;;;;5034406;28;20383;-59
2021/10/03 04:38:38;;;;;;;8.98;5.85;;;;;;;;;;5034939;28;20020;-58
2021/10/03 04:41:04;;;;;;;10.15;5.38;;;;;;;;;;5033388;28;20029;-58
2021/10/03 04:43:32;;;;;;;6.28;4.97;;;;;;;;;;5034693;28;20022;-58
2021/10/03 04:45:58;;;;;;;8.88;5.72;;;;;;;;;;5034428;28;20476;-59
2021/10/03 04:48:23;;;;;;;8.65;5.50;;;;;;;;;;5046237;28;20036;-59
2021/10/03 04:50:48;;;;;;;7.53;5.60;;;;;;;;;;5036283;28;20032;-57
2021/10/03 04:53:16;;;;;;;8.38;6.03;;;;;;;;;;5034491;28;20284;-55
2021/10/03 04:55:41;;;;;;;9.43;5.38;;;;;;;;;;5032762;28;20018;-60
2021/10/03 04:58:16;;;;;;;11.00;6.38;;;;;;;;;;5034512;28;20052;-56
2021/10/03 05:00:51;;;;;;;9.85;5.90;;;;;;;;;;5034389;28;20022;-56
2021/10/03 05:03:17;;;;;;;8.38;6.00;;;;;;;;;;5033078;28;20391;-59
2021/10/03 05:05:45;;;;;;;9.18;5.88;;;;;;;;;;5034055;28;20096;-56
2021/10/03 05:08:12;;;;;;;8.82;6.18;;;;;;;;;;5034272;28;20021;-52
2021/10/03 05:10:41;;;;;;;8.82;5.78;;;;;;;;;;5034202;28;20412;-57
2021/10/03 05:13:12;;;;;;;7.78;5.65;;;;;;;;;;5033946;28;20029;-58
2021/10/03 05:15:37;;;;;;;12.25;5.82;;;;;;;;;;5032586;28;20133;-56
2021/10/03 05:18:03;;;;;;;8.37;6.07;;;;;;;;;;5034193;28;20021;-55
2021/10/03 05:20:31;;;;;;;8.88;5.80;;;;;;;;;;5034312;28;20492;-57
2021/10/03 05:22:56;;;;;;;10.98;6.35;;;;;;;;;;5032462;28;20025;-56
2021/10/03 05:25:21;;;;;;;10.85;7.13;;;;;;;;;;5033627;28;20022;-57
2021/10/03 05:27:47;;;;;;;11.27;7.25;;;;;;;;;;5033850;28;20112;-59
2021/10/03 05:30:12;;;;;;;10.80;7.15;;;;;;;;;;5033791;28;20021;-58
2021/10/03 05:32:37;;;;;;;10.95;6.10;;;;;;;;;;5033791;28;20047;-59
2021/10/03 05:35:04;;;;;;;10.63;6.93;;;;;;;;;;5032315;28;20068;-58
2021/10/03 05:37:38;;;;;;;9.18;6.53;;;;;;;;;;5033707;28;20076;-59
2021/10/03 05:40:15;;;;;;;8.90;6.05;;;;;;;;;;5033687;28;20018;-55
2021/10/03 05:42:41;;;;;;;13.13;7.15;;;;;;;;;;5033511;28;20443;-58
2021/10/03 05:45:09;;;;;;;11.07;7.27;;;;;;;;;;5033243;28;20057;-58
2021/10/03 05:47:34;;;;;;;11.10;6.82;;;;;;;;;;5038087;28;20768;-58
2021/10/03 05:49:59;;;;;;;12.52;7.70;;;;;;;;;;5040837;28;20104;-58
2021/10/03 05:52:25;;;;;;;11.80;6.95;;;;;;;;;;5033507;28;20060;-57
2021/10/03 05:54:50;;;;;;;8.98;6.43;;;;;;;;;;5033513;28;20076;-54
2021/10/03 05:57:16;;;;;;;8.47;6.13;;;;;;;;;;5032760;28;20096;-56
2021/10/03 05:59:41;;;;;;;10.15;6.82;;;;;;;;;;5032056;28;20268;-56
2021/10/03 06:02:06;;;;;;;9.27;6.50;;;;;;;;;;5031673;28;20482;-58
2021/10/03 06:04:32;;;;;;;10.88;6.65;;;;;;;;;;5032909;28;20496;-56
2021/10/03 06:06:57;;;;;;;12.65;7.32;;;;;;;;;;5033060;28;20029;-57
2021/10/03 06:09:23;;;;;;;13.23;6.88;;;;;;;;;;5031997;28;20025;-58
2021/10/03 06:11:48;;;;;;;9.75;6.35;;;;;;;;;;5036876;28;20029;-59
2021/10/03 06:14:13;;;;;;;10.37;7.07;;;;;;;;;;5042846;28;20087;-59
2021/10/03 06:16:42;;;;;;;10.00;7.28;;;;;;;;;;5049667;28;20713;-57
2021/10/03 06:19:07;;;;;;;8.82;6.28;;;;;;;;;;5052666;28;20017;-58
2021/10/03 06:21:32;;;;;;;10.97;6.73;;;;;;;;;;5051886;28;20024;-59
2021/10/03 06:23:57;;;;;;;16.65;10.85;;;;;;;;;;5051363;28;20303;-57
2021/10/03 06:26:23;;;;;;;11.00;7.20;;;;;;;;;;5051886;28;20024;-58
2021/10/03 06:28:50;;;;;;;8.37;6.40;;;;;;;;;;5052688;28;20263;-58
2021/10/03 06:31:15;;;;;;;11.68;6.85;;;;;;;;;;5052615;28;20263;-59
2021/10/03 06:33:41;;;;;;;10.23;6.53;;;;;;;;;;5052253;28;20502;-59
2021/10/03 06:36:08;;;;;;;9.97;6.37;;;;;;;;;;5051988;28;20754;-58
2021/10/03 06:38:34;;;;;;;8.82;6.20;;;;;;;;;;5051235;28;20266;-58
2021/10/03 06:40:59;;;;;;;10.55;6.75;;;;;;;;;;5051167;28;20025;-58
2021/10/03 06:43:24;;;;;;;10.27;6.77;;;;;;;;;;5052337;28;20023;-55
2021/10/03 06:45:52;;;;;;;10.82;7.75;;;;;;;;;;5050242;28;20128;-57
2021/10/03 06:48:17;;;;;;;10.55;7.10;;;;;;;;;;5042967;28;20021;-59
2021/10/03 06:50:43;;;;;;;9.83;6.40;;;;;;;;;;5028890;28;20499;-57
2021/10/03 06:53:08;;;;;;;10.20;6.38;;;;;;;;;;5029364;28;20644;-58
2021/10/03 06:55:33;;;;;;;10.90;5.95;;;;;;;;;;5036692;28;20020;-60
2021/10/03 06:58:03;;;;;;;9.18;6.20;;;;;;;;;;5029812;28;20052;-59
2021/10/03 07:00:29;;;;;;;9.30;5.68;;;;;;;;;;5028784;28;20063;-59
2021/10/03 07:02:54;;;;;;;11.10;5.38;;;;;;;;;;5036153;28;20032;-59
2021/10/03 07:05:19;;;;;;;7.10;5.13;;;;;;;;;;5030860;28;20025;-59
2021/10/03 07:07:44;;;;;;;5.83;4.70;;;;;;;;;;5029235;28;20742;-59
2021/10/03 07:10:10;;;;;;;7.68;5.00;;;;;;;;;;5023760;28;20766;-58
2021/10/03 07:12:35;;;;;;;7.65;4.70;;;;;;;;;;5029980;28;20025;-58
2021/10/03 07:15:00;;;;;;;11.57;5.00;;;;;;;;;;5025794;28;20067;-59
2021/10/03 07:17:25;;;;;;;12.48;5.50;;;;;;;;;;5023776;28;20387;-59
2021/10/03 07:19:51;;;;;;;6.77;4.60;;;;;;;;;;5030302;28;20033;-58
2021/10/03 07:22:17;;;;;;;8.45;5.28;;;;;;;;;;5029224;28;20268;-58
2021/10/03 07:24:42;;;;;;;12.20;5.35;;;;;;;;;;5023340;28;20404;-60
2021/10/03 07:27:08;;;;;;;7.45;4.78;;;;;;;;;;5030966;28;20060;-59
2021/10/03 07:29:34;;;;;;;6.30;4.75;;;;;;;;;;5024436;28;20484;-57
2021/10/03 07:31:59;;;;;;;6.68;5.07;;;;;;;;;;5020743;28;20037;-58
2021/10/03 07:34:25;;;;;;;10.20;4.88;;;;;;;;;;5028857;28;20026;-61
2021/10/03 07:36:50;;;;;;;8.75;5.07;;;;;;;;;;5017165;28;20057;-58
2021/10/03 07:39:15;;;;;;;8.93;4.85;;;;;;;;;;5003325;28;20025;-60
2021/10/03 07:41:40;;;;;;;10.02;5.18;;;;;;;;;;5022855;28;20017;-58
2021/10/03 07:44:06;;;;;;;7.75;5.18;;;;;;;;;;5022957;28;20090;-58
2021/10/03 07:46:33;;;;;;;6.45;4.45;;;;;;;;;;5027700;28;20028;-57
2021/10/03 07:48:59;;;;;;;9.23;5.72;;;;;;;;;;5026427;28;20029;-58
2021/10/03 07:51:24;;;;;;;7.40;5.47;;;;;;;;;;5006917;28;20025;-60
2021/10/03 07:53:51;;;;;;;7.43;5.45;;;;;;;;;;5027245;28;20729;-59
2021/10/03 07:56:17;;;;;;;6.60;5.35;;;;;;;;;;5023290;28;20025;-59
2021/10/03 07:58:42;;;;;;;7.03;4.82;;;;;;;;;;5022234;28;20036;-57
2021/10/03 08:01:08;;;;;;;8.60;5.40;;;;;;;;;;5028419;28;20029;-56
2021/10/03 08:03:33;;;;;;;9.63;5.45;;;;;;;;;;5034815;28;20447;-59
2021/10/03 08:05:58;;;;;;;5.70;4.57;;;;;;;;;;5034611;28;20033;-57
2021/10/03 08:08:23;;;;;;;9.03;5.70;;;;;;;;;;5030472;28;20013;-56
2021/10/03 08:10:49;;;;;;;7.43;5.30;;;;;;;;;;5025305;28;20390;-56
2021/10/03 08:13:15;;;;;;;8.10;5.00;;;;;;;;;;5028558;28;20496;-58
2021/10/03 08:15:41;;;;;;;6.90;4.93;;;;;;;;;;5027266;28;20021;-60
2021/10/03 08:18:07;;;;;;;7.00;5.20;;;;;;;;;;5021105;28;20025;-59
2021/10/03 08:20:32;;;;;;;7.10;5.28;;;;;;;;;;5024448;28;20029;-59
2021/10/03 08:22:58;;;;;;;12.55;5.82;;;;;;;;;;5032037;28;20033;-59
2021/10/03 08:25:23;;;;;;;8.05;5.45;;;;;;;;;;5023624;28;20025;-59
2021/10/03 08:27:49;;;;;;;8.77;5.10;;;;;;;;;;5029749;28;20052;-59
2021/10/03 08:30:14;;;;;;;6.43;4.95;;;;;;;;;;5038513;28;20036;-59
2021/10/03 08:32:40;;;;;;;7.45;5.53;;;;;;;;;;5050559;28;20036;-55
2021/10/03 08:35:06;;;;;;;8.20;5.50;;;;;;;;;;5050643;28;20028;-58
2021/10/03 08:37:31;;;;;;;9.88;5.40;;;;;;;;;;5037548;28;20387;-59
2021/10/03 08:39:57;;;;;;;6.88;5.50;;;;;;;;;;5049722;28;20426;-58
2021/10/03 08:42:22;;;;;;;10.40;5.43;;;;;;;;;;5049493;28;20025;-58
2021/10/03 08:44:47;;;;;;;6.80;5.30;;;;;;;;;;5041961;28;20026;-58
2021/10/03 08:47:13;;;;;;;8.10;5.60;;;;;;;;;;5035887;28;20022;-57
2021/10/03 08:49:38;;;;;;;9.43;5.72;;;;;;;;;;5045862;28;20032;-57
2021/10/03 08:52:04;;;;;;;7.57;5.32;;;;;;;;;;5034796;28;20017;-60
2021/10/03 08:54:33;;;;;;;7.78;5.82;;;;;;;;;;5025138;28;20041;-58
2021/10/03 08:56:58;;;;;;;6.20;5.30;;;;;;;;;;5029904;28;20458;-58
2021/10/03 08:59:25;;;;;;;8.87;5.60;;;;;;;;;;5023791;28;20014;-58
2021/10/03 09:01:54;;;;;;;7.45;4.97;;;;;;;;;;5032324;28;20380;-58
2021/10/03 09:04:33;;;;;;;6.70;5.15;;;;;;;;;;5042407;28;20443;-58
2021/10/03 09:07:09;;;;;;;9.40;5.20;;;;;;;;;;5030799;28;20029;-58
2021/10/03 09:09:53;;;;;;;8.00;5.63;;;;;;;;;;5032536;28;20100;-56
2021/10/03 09:12:38;;;;;;;7.82;5.53;;;;;;;;;;5035089;28;20091;-58
2021/10/03 09:15:04;;;;;;;7.15;4.93;;;;;;;;;;5033505;28;20068;-60
2021/10/03 09:17:30;;;;;;;7.00;4.93;;;;;;;;;;5030245;28;20028;-59
2021/10/03 09:20:18;;;;;;;6.60;5.22;;;;;;;;;;5034266;28;20017;-58
2021/10/03 09:22:58;;;;;;;8.20;5.13;;;;;;;;;;5032661;28;20020;-58
2021/10/03 09:25:31;;;;;;;7.13;4.78;;;;;;;;;;5036089;28;20041;-60
2021/10/03 09:27:56;;;;;;;9.80;5.47;;;;;;;;;;5052726;28;20021;-59
2021/10/03 09:30:21;;;;;;;5.97;4.57;;;;;;;;;;5053794;28;20017;-59
2021/10/03 09:32:55;;;;;;;7.38;4.90;;;;;;;;;;5053863;28;20284;-61
2021/10/03 09:35:21;;;;;;;6.13;4.95;;;;;;;;;;5053391;28;20047;-58
2021/10/03 09:37:46;;;;;;;6.70;4.87;;;;;;;;;;5053783;28;20017;-61
2021/10/03 09:40:13;;;;;;;9.73;6.55;;;;;;;;;;5053838;28;20677;-61
2021/10/03 09:42:39;;;;;;;7.68;5.32;;;;;;;;;;5053564;28;20418;-60
2021/10/03 09:45:05;;;;;;;7.55;4.63;;;;;;;;;;5053130;28;20518;-59
2021/10/03 09:47:30;;;;;;;7.93;4.87;;;;;;;;;;5039115;28;20029;-61
2021/10/03 09:49:56;;;;;;;7.67;4.50;;;;;;;;;;5044418;28;20307;-60
2021/10/03 09:52:22;;;;;;;6.65;4.68;;;;;;;;;;5051958;28;20272;-60
2021/10/03 09:54:51;;;;;;;8.90;5.63;;;;;;;;;;5051590;28;20029;-61
2021/10/03 09:57:18;;;;;;;7.20;5.32;;;;;;;;;;5039180;28;20263;-61
2021/10/03 09:59:45;;;;;;;7.30;5.40;;;;;;;;;;5023440;28;20084;-61
2021/10/03 10:02:11;;;;;;;7.75;4.88;;;;;;;;;;5025608;28;20174;-62
2021/10/03 10:04:38;;;;;;;6.10;4.88;;;;;;;;;;5025747;28;20022;-61
2021/10/03 10:07:04;;;;;;;8.40;4.65;;;;;;;;;;5029417;28;20025;-62
2021/10/03 10:09:29;;;;;;;6.75;4.70;;;;;;;;;;5027771;28;20595;-58
2021/10/03 10:11:57;;;;;;;8.15;4.40;;;;;;;;;;5030929;28;20022;-61
2021/10/03 10:14:27;;;;;;;6.35;5.13;;;;;;;;;;5007838;28;20109;-61
2021/10/03 10:16:57;;;;;;;5.88;4.60;;;;;;;;;;5027637;28;20029;-58
2021/10/03 10:19:29;;;;;;;7.05;4.68;;;;;;;;;;5020782;28;20112;-59
2021/10/03 10:22:15;;;;;;;6.32;5.07;;;;;;;;;;5025467;28;20370;-59
2021/10/03 10:24:46;;;;;;;5.95;3.95;;;;;;;;;;5025394;28;20918;-59
2021/10/03 10:27:21;;;;;;;6.22;4.10;;;;;;;;;;5030507;28;20085;-60
2021/10/03 10:29:49;;;;;;;4.90;4.20;;;;;;;;;;5037455;28;20388;-60
2021/10/03 10:32:14;;;;;;;5.65;4.45;;;;;;;;;;5035928;28;20590;-60
2021/10/03 10:34:58;;;;;;;5.30;3.80;;;;;;;;;;5026672;28;20025;-60
2021/10/03 10:37:43;;;;;;;4.60;3.83;;;;;;;;;;5026462;28;20136;-59
2021/10/03 10:40:28;;;;;;;4.90;3.88;;;;;;;;;;5025229;28;20025;-61
2021/10/03 10:42:54;;;;;;;6.85;4.05;;;;;;;;;;5025839;28;20036;-59
2021/10/03 10:45:28;;;;;;;7.30;4.88;;;;;;;;;;5029822;28;20342;-58
2021/10/03 10:48:08;;;;;;;5.95;4.53;;;;;;;;;;5024719;28;20099;-58
2021/10/03 10:50:33;;;;;;;7.20;4.78;;;;;;;;;;5032442;28;20017;-57
2021/10/03 10:53:14;;;;;;;7.87;5.37;;;;;;;;;;5027612;28;20024;-59
2021/10/03 10:55:40;;;;;;;7.70;5.38;;;;;;;;;;5047066;22;20411;-58
2021/10/03 10:58:06;;;;;;;12.68;4.85;;;;;;;;;;5024397;28;20021;-54
2021/10/03 11:00:31;;;;;;;8.82;5.22;;;;;;;;;;5031557;28;20035;-56
2021/10/03 11:02:58;;;;;;;7.07;4.25;;;;;;;;;;5022395;28;20115;-53
2021/10/03 11:05:34;;;;;;;6.60;4.85;;;;;;;;;;4997891;28;20022;-59
2021/10/03 11:08:12;;;;;;;9.00;4.80;;;;;;;;;;4993916;28;20021;-57
2021/10/03 11:10:56;;;;;;;7.75;4.80;;;;;;;;;;4996415;28;20045;-56
2021/10/03 11:13:40;;;;;;;7.00;4.75;;;;;;;;;;5018697;28;20098;-59
2021/10/03 11:16:25;;;;;;;5.38;4.07;;;;;;;;;;4996675;28;20100;-59
2021/10/03 11:18:55;;;;;;;6.07;4.97;;;;;;;;;;5002732;28;20027;-58
2021/10/03 11:21:30;;;;;;;5.60;4.22;;;;;;;;;;4992954;28;20022;-56
2021/10/03 11:23:57;;;;;;;5.93;4.53;;;;;;;;;;4991764;28;20496;-55
2021/10/03 11:26:23;;;;;;;5.18;4.38;;;;;;;;;;4992877;28;20542;-56
2021/10/03 11:28:53;;;;;;;4.80;4.00;;;;;;;;;;5003196;28;20025;-56
2021/10/03 11:31:37;;;;;;;7.20;4.30;;;;;;;;;;4997173;28;20508;-55
2021/10/03 11:34:04;;;;;;;4.30;3.88;;;;;;;;;;5002715;28;20037;-56
2021/10/03 11:36:29;;;;;;;5.18;4.15;;;;;;;;;;4996905;28;20109;-57
2021/10/03 11:38:57;;;;;;;6.05;4.10;;;;;;;;;;5000768;28;20092;-58
2021/10/03 11:41:22;;;;;;;6.70;3.90;;;;;;;;;;4994391;28;20428;-57
2021/10/03 11:43:47;;;;;;;6.82;4.10;;;;;;;;;;4992799;28;20062;-57
2021/10/03 11:46:12;;;;;;;5.43;4.10;;;;;;;;;;4991319;28;20560;-58
2021/10/03 11:48:38;;;;;;;8.30;4.03;;;;;;;;;;4998189;28;20265;-55
2021/10/03 11:51:03;;;;;;;5.23;4.07;;;;;;;;;;4994868;28;20269;-55
2021/10/03 11:53:32;;;;;;;4.72;4.20;;;;;;;;;;4992591;28;20292;-58
2021/10/03 11:56:07;;;;;;;5.35;4.25;;;;;;;;;;5004300;28;20046;-54
2021/10/03 11:58:36;;;;;;;5.70;4.20;;;;;;;;;;4997507;28;20128;-52
2021/10/03 12:01:02;;;;;;;6.00;4.20;;;;;;;;;;4992986;28;20019;-55
2021/10/03 12:03:30;;;;;;;5.65;4.20;;;;;;;;;;4995877;28;20080;-56
2021/10/03 12:05:55;;;;;;;7.15;4.53;;;;;;;;;;4991256;28;20025;-56
2021/10/03 12:08:21;;;;;;;5.78;4.38;;;;;;;;;;4999025;28;20022;-58
2021/10/03 12:10:59;;;;;;;4.72;4.22;;;;;;;;;;4994511;28;20077;-56
2021/10/03 12:13:32;;;;;;;6.00;4.35;;;;;;;;;;4992266;28;20029;-62
2021/10/03 12:16:12;;;;;;;8.13;3.97;;;;;;;;;;5013585;28;20023;-60
2021/10/03 12:19:03;;;;;;;6.50;4.35;;;;;;;;;;5014781;28;20161;-62
2021/10/03 12:21:30;;;;;;;8.60;4.78;;;;;;;;;;4992994;28;20082;-60
2021/10/03 12:23:59;;;;;;;5.28;4.20;;;;;;;;;;5013420;28;20026;-62
2021/10/03 12:26:36;;;;;;;5.03;4.18;;;;;;;;;;5001562;28;20023;-60
2021/10/03 12:29:05;;;;;;;6.53;4.40;;;;;;;;;;4995854;28;20027;-62
2021/10/03 12:31:33;;;;;;;5.10;4.35;;;;;;;;;;4996498;28;20027;-62
2021/10/03 12:33:58;;;;;;;5.60;4.13;;;;;;;;;;4994899;28;20032;-62
2021/10/03 12:36:23;;;;;;;6.23;4.27;;;;;;;;;;4994770;28;20026;-62
2021/10/03 12:38:48;;;;;;;6.83;4.27;;;;;;;;;;5003059;28;20293;-62
2021/10/03 12:41:14;;;;;;;4.83;4.13;;;;;;;;;;5000519;28;20265;-57
2021/10/03 12:43:55;;;;;;;5.28;4.15;;;;;;;;;;4994838;28;20276;-62
2021/10/03 12:46:21;;;;;;;6.90;4.50;;;;;;;;;;5016855;28;20027;-62
2021/10/03 12:48:46;;;;;;;5.00;4.03;;;;;;;;;;5003323;28;20022;-62
2021/10/03 12:51:11;;;;;;;6.10;4.30;;;;;;;;;;4998684;28;20063;-62
2021/10/03 12:53:36;;;;;;;7.60;4.10;;;;;;;;;;4995865;28;20026;-62
2021/10/03 12:56:01;;;;;;;4.60;4.17;;;;;;;;;;5011880;28;20317;-62
2021/10/03 12:58:27;;;;;;;7.17;4.77;;;;;;;;;;5000939;28;20277;-62
2021/10/03 13:00:57;;;;;;;6.60;4.57;;;;;;;;;;5003332;28;20269;-62
2021/10/03 13:03:23;;;;;;;6.13;4.78;;;;;;;;;;4995953;28;20269;-63
2021/10/03 13:05:51;;;;;;;7.10;5.38;;;;;;;;;;4994423;28;20104;-63
2021/10/03 13:08:23;;;;;;;7.93;4.78;;;;;;;;;;4994676;28;20512;-63
2021/10/03 13:10:48;;;;;;;5.82;5.22;;;;;;;;;;4995689;28;20078;-63
2021/10/03 13:13:14;;;;;;;8.07;5.47;;;;;;;;;;4995609;28;20030;-63
2021/10/03 13:15:39;;;;;;;6.43;4.73;;;;;;;;;;4995556;28;20352;-60
2021/10/03 13:18:07;;;;;;;7.55;5.35;;;;;;;;;;4994251;28;20261;-63
2021/10/03 13:20:32;;;;;;;7.10;4.88;;;;;;;;;;4995373;28;20046;-63
2021/10/03 13:23:01;;;;;;;6.37;5.10;;;;;;;;;;4995513;28;20214;-62
2021/10/03 13:25:26;;;;;;;5.22;4.72;;;;;;;;;;4995372;28;20266;-63
2021/10/03 13:27:51;;;;;;;5.83;4.80;;;;;;;;;;4995468;28;20417;-63
2021/10/03 13:30:17;;;;;;;6.70;5.20;;;;;;;;;;4994051;28;20270;-62
2021/10/03 13:32:43;;;;;;;8.15;5.10;;;;;;;;;;4995079;28;20360;-62
2021/10/03 13:35:09;;;;;;;6.15;5.20;;;;;;;;;;4994150;28;20600;-62
2021/10/03 13:37:34;;;;;;;9.82;5.38;;;;;;;;;;4995203;28;20093;-62
2021/10/03 13:39:59;;;;;;;7.55;5.32;;;;;;;;;;4993878;28;20026;-63
2021/10/03 13:42:31;;;;;;;8.23;5.32;;;;;;;;;;4994154;28;20026;-63
2021/10/03 13:44:56;;;;;;;6.10;4.90;;;;;;;;;;4994965;28;20026;-62
2021/10/03 13:47:27;;;;;;;5.37;4.87;;;;;;;;;;4995096;28;20022;-61
2021/10/03 13:49:52;;;;;;;5.93;4.88;;;;;;;;;;4993813;28;20338;-63
2021/10/03 13:52:18;;;;;;;6.13;4.80;;;;;;;;;;4994999;28;20021;-62
2021/10/03 13:54:50;;;;;;;7.70;5.37;;;;;;;;;;4993380;28;20141;-62
2021/10/03 13:57:19;;;;;;;5.07;4.45;;;;;;;;;;5008206;28;20312;-63
2021/10/03 13:59:50;;;;;;;5.93;4.63;;;;;;;;;;5004300;28;20028;-63
2021/10/03 14:02:16;;;;;;;5.15;4.65;;;;;;;;;;5008968;28;20022;-63
2021/10/03 14:04:57;;;;;;;6.20;4.72;;;;;;;;;;5002399;28;20485;-63
2021/10/03 14:07:22;;;;;;;5.45;4.40;;;;;;;;;;5014545;28;20033;-63
2021/10/03 14:09:47;;;;;;;6.60;4.53;;;;;;;;;;4994701;28;20023;-63
2021/10/03 14:12:12;;;;;;;6.95;4.47;;;;;;;;;;5003993;28;20272;-61
2021/10/03 14:14:41;;;;;;;5.33;4.40;;;;;;;;;;4994425;28;20022;-63
2021/10/03 14:17:21;;;;;;;5.60;4.20;;;;;;;;;;5011707;28;20257;-63
2021/10/03 14:19:46;;;;;;;5.00;4.28;;;;;;;;;;4994485;28;20473;-62
2021/10/03 14:22:14;;;;;;;5.70;4.00;;;;;;;;;;4999518;28;20028;-63
2021/10/03 14:24:42;;;;;;;6.07;4.50;;;;;;;;;;4994058;28;20324;-63
2021/10/03 14:27:08;;;;;;;6.22;4.30;;;;;;;;;;4994190;28;20424;-63
2021/10/03 14:29:33;;;;;;;5.35;4.30;;;;;;;;;;4994417;28;20022;-63
2021/10/03 14:32:02;;;;;;;4.90;3.80;;;;;;;;;;5006260;28;20066;-62
2021/10/03 14:34:27;;;;;;;5.68;4.72;;;;;;;;;;4997854;28;20776;-62
2021/10/03 14:36:52;;;;;;;6.43;4.28;;;;;;;;;;4994038;28;20105;-63
2021/10/03 14:39:21;;;;;;;5.97;4.53;;;;;;;;;;4993906;28;20081;-63
2021/10/03 14:41:46;;;;;;;6.47;4.45;;;;;;;;;;5003694;28;20266;-63
2021/10/03 14:44:11;;;;;;;7.32;4.38;;;;;;;;;;4993805;28;20033;-62